createdAt,value
2022-08-30T00:01:32.059Z,80.57
2022-08-30T00:04:35.394Z,81.52
2022-08-30T00:07:37.699Z,82.98
2022-08-30T00:10:41.356Z,83.91
2022-08-30T00:13:45.758Z,82.41
2022-08-30T00:16:47.966Z,82.64
2022-08-30T00:19:50.105Z,82.44
2022-08-30T00:22:52.442Z,81.73
2022-08-30T00:25:54.503Z,81.72
2022-08-30T00:28:56.843Z,80.85
2022-08-30T00:31:59.372Z,80.86
2022-08-30T00:35:02.210Z,83.15
2022-08-30T00:38:04.755Z,83.62
2022-08-30T00:41:07.565Z,84.08
2022-08-30T00:44:10.136Z,84.48
2022-08-30T00:47:12.652Z,83.23
2022-08-30T00:50:17.342Z,84.74
2022-08-30T00:53:33.751Z,84.76
2022-08-30T00:56:36.149Z,83.69
2022-08-30T00:59:38.797Z,83.52
2022-08-30T01:02:41.794Z,82.49
2022-08-30T01:05:44.456Z,83.13
2022-08-30T01:08:47.902Z,85.58
2022-08-30T01:11:50.995Z,84.19
2022-08-30T01:14:53.085Z,82.80
2022-08-30T01:17:55.609Z,82.27
2022-08-30T01:21:19.800Z,83.42
2022-08-30T01:24:22.520Z,81.97
2022-08-30T01:27:25.222Z,82.76
2022-08-30T01:30:29.315Z,81.65
2022-08-30T01:33:31.828Z,81.29
2022-08-30T01:36:37.782Z,82.26
2022-08-30T01:39:46.993Z,84.48
2022-08-30T01:42:50.100Z,82.61
2022-08-30T01:45:52.300Z,84.66
2022-08-30T01:48:57.152Z,84.72
2022-08-30T01:52:01.169Z,84.26
2022-08-30T01:55:04.915Z,83.13
2022-08-30T01:58:06.924Z,82.71
2022-08-30T02:01:14.699Z,83.10
2022-08-30T02:04:17.019Z,82.37
2022-08-30T02:07:20.483Z,82.99
2022-08-30T02:10:22.789Z,82.17
2022-08-30T02:13:25.111Z,82.33
2022-08-30T02:16:27.660Z,83.39
2022-08-30T02:19:32.915Z,80.73
2022-08-30T02:22:35.399Z,81.71
2022-08-30T02:25:37.825Z,83.53
2022-08-30T02:28:42.762Z,82.78
2022-08-30T02:31:52.403Z,82.48
2022-08-30T02:34:55.396Z,81.57
2022-08-30T02:37:57.664Z,82.23
2022-08-30T02:40:59.975Z,82.84
2022-08-30T02:44:02.380Z,81.68
2022-08-30T02:47:04.731Z,81.49
2022-08-30T02:50:08.760Z,82.47
2022-08-30T02:53:11.747Z,83.54
2022-08-30T02:56:18.614Z,83.99
2022-08-30T02:59:21.254Z,83.69
2022-08-30T03:02:23.894Z,84.09
2022-08-30T03:05:26.311Z,86.94
2022-08-30T03:08:29.334Z,85.19
2022-08-30T03:11:31.834Z,84.12
2022-08-30T03:14:36.343Z,85.74
2022-08-30T03:17:38.843Z,83.46
2022-08-30T03:20:41.423Z,85.27
2022-08-30T03:23:46.212Z,84.58
2022-08-30T03:26:48.455Z,84.38
2022-08-30T03:29:50.433Z,83.30
2022-08-30T03:32:52.669Z,84.17
2022-08-30T03:35:54.703Z,85.32
2022-08-30T03:38:57.947Z,86.79
2022-08-30T03:42:00.217Z,89.02
2022-08-30T03:45:02.919Z,89.89
2022-08-30T03:48:05.482Z,91.77
2022-08-30T03:51:07.783Z,95.95
2022-08-30T03:54:10.047Z,94.21
2022-08-30T03:57:19.736Z,97.49
2022-08-30T04:00:22.704Z,97.96
2022-08-30T04:03:26.144Z,99.46
2022-08-30T04:06:28.458Z,100.00
2022-08-30T04:09:31.405Z,100.00
2022-08-30T04:12:33.621Z,100.00
2022-08-30T04:15:35.826Z,100.00
2022-08-30T04:18:37.922Z,100.00
2022-08-30T04:21:42.961Z,100.00
2022-08-30T04:24:45.497Z,100.00
2022-08-30T04:27:47.791Z,100.00
2022-08-30T04:30:49.867Z,100.00
2022-08-30T04:33:52.190Z,100.00
2022-08-30T04:36:54.248Z,100.00
2022-08-30T04:40:02.665Z,100.00
2022-08-30T04:43:04.695Z,100.00
2022-08-30T04:46:08.014Z,100.00
2022-08-30T04:49:10.043Z,100.00
2022-08-30T04:52:12.305Z,100.00
2022-08-30T04:55:19.517Z,100.00
2022-08-30T04:58:24.193Z,100.00
2022-08-30T05:01:30.178Z,100.00
2022-08-30T05:04:32.493Z,100.00
2022-08-30T05:07:34.696Z,100.00
2022-08-30T05:10:42.507Z,100.00
2022-08-30T05:13:45.233Z,100.00
2022-08-30T05:16:47.572Z,100.00
2022-08-30T05:19:49.583Z,100.00
2022-08-30T05:22:53.636Z,100.00
2022-08-30T05:25:56.192Z,100.00
2022-08-30T05:28:58.995Z,99.00
2022-08-30T05:32:01.029Z,98.34
2022-08-30T05:35:06.566Z,97.34
2022-08-30T05:38:08.671Z,96.54
2022-08-30T05:41:12.713Z,97.25
2022-08-30T05:44:14.810Z,96.97
2022-08-30T05:47:17.019Z,96.82
2022-08-30T05:50:19.141Z,95.25
2022-08-30T05:53:21.401Z,95.02
2022-08-30T05:56:27.080Z,94.74
2022-08-30T05:59:29.292Z,94.23
2022-08-30T06:02:31.369Z,94.84
2022-08-30T06:05:33.808Z,94.60
2022-08-30T06:08:37.760Z,93.46
2022-08-30T06:11:40.591Z,92.94
2022-08-30T06:14:42.786Z,92.58
2022-08-30T06:17:45.126Z,93.69
2022-08-30T06:20:51.384Z,93.00
2022-08-30T06:23:54.334Z,93.06
2022-08-30T06:26:56.462Z,92.23
2022-08-30T06:29:58.750Z,92.07
2022-08-30T06:33:02.250Z,91.11
2022-08-30T06:36:12.192Z,90.21
2022-08-30T06:39:14.611Z,90.12
2022-08-30T06:42:16.917Z,90.59
2022-08-30T06:45:20.486Z,90.74
2022-08-30T06:48:22.800Z,92.17
2022-08-30T06:51:27.773Z,90.52
2022-08-30T06:54:30.359Z,90.74
2022-08-30T06:57:32.659Z,90.33
2022-08-30T07:00:34.933Z,89.56
2022-08-30T07:03:38.957Z,89.77
2022-08-30T07:06:41.373Z,89.65
2022-08-30T07:09:44.482Z,88.57
2022-08-30T07:12:47.129Z,86.86
2022-08-30T07:15:49.772Z,86.70
2022-08-30T07:18:54.932Z,86.66
2022-08-30T07:21:57.170Z,87.16
2022-08-30T07:24:59.803Z,85.89
2022-08-30T07:28:02.207Z,85.66
2022-08-30T07:31:06.160Z,85.92
2022-08-30T07:34:09.478Z,85.82
2022-08-30T07:37:17.961Z,85.53
2022-08-30T07:40:20.710Z,85.18
2022-08-30T07:43:23.131Z,85.04
2022-08-30T07:46:26.562Z,83.98
2022-08-30T07:49:29.280Z,84.17
2022-08-30T07:52:31.709Z,84.03
2022-08-30T07:55:34.422Z,83.40
2022-08-30T07:58:38.089Z,83.37
2022-08-30T08:01:40.875Z,83.36
2022-08-30T08:04:44.178Z,83.45
2022-08-30T08:07:46.581Z,83.49
2022-08-30T08:10:48.908Z,84.32
2022-08-30T08:13:53.864Z,83.16
2022-08-30T08:16:56.492Z,82.43
2022-08-30T08:19:58.884Z,82.63
2022-08-30T08:23:00.992Z,81.94
2022-08-30T08:26:04.509Z,81.53
2022-08-30T08:29:08.407Z,81.99
2022-08-30T08:32:11.488Z,80.87
2022-08-30T08:35:15.181Z,79.16
2022-08-30T08:38:20.608Z,79.55
2022-08-30T08:41:50.020Z,79.57
2022-08-30T08:45:00.318Z,80.09
2022-08-30T08:48:11.654Z,78.48
2022-08-30T08:51:37.189Z,77.40
2022-08-30T08:54:48.555Z,77.76
2022-08-30T08:57:52.446Z,76.54
2022-08-30T09:00:59.609Z,78.24
2022-08-30T09:04:08.132Z,78.17
2022-08-30T09:07:20.081Z,78.58
2022-08-30T09:10:40.524Z,77.28
2022-08-30T09:13:45.549Z,75.33
2022-08-30T09:16:51.323Z,75.76
2022-08-30T09:19:53.639Z,75.34
2022-08-30T09:22:56.568Z,74.79
2022-08-30T09:26:00.051Z,75.09
2022-08-30T09:29:17.523Z,74.66
2022-08-30T09:32:31.439Z,74.63
2022-08-30T09:35:40.771Z,74.15
2022-08-30T09:38:43.085Z,72.60
2022-08-30T09:41:49.176Z,73.71
2022-08-30T09:44:51.995Z,73.65
2022-08-30T09:47:55.417Z,72.16
2022-08-30T09:51:15.283Z,71.59
2022-08-30T09:54:26.826Z,71.26
2022-08-30T09:57:41.615Z,72.23
2022-08-30T10:00:50.011Z,71.27
2022-08-30T10:04:04.731Z,71.32
2022-08-30T10:07:15.948Z,70.84
2022-08-30T10:11:06.299Z,71.12
2022-08-30T10:14:17.302Z,71.04
2022-08-30T10:17:53.966Z,71.06
2022-08-30T10:21:19.217Z,70.28
2022-08-30T10:24:30.146Z,69.72
2022-08-30T10:27:43.023Z,69.34
2022-08-30T10:30:54.170Z,69.85
2022-08-30T10:34:03.221Z,69.53
2022-08-30T10:37:10.653Z,68.58
2022-08-30T10:40:57.240Z,68.21
2022-08-30T10:44:02.961Z,68.17
2022-08-30T10:47:24.235Z,67.42
2022-08-30T10:50:39.034Z,68.13
2022-08-30T10:53:48.524Z,66.02
2022-08-30T10:56:52.007Z,65.63
2022-08-30T11:00:02.715Z,64.73
2022-08-30T11:03:49.618Z,62.83
2022-08-30T11:07:13.449Z,63.25
2022-08-30T11:10:25.607Z,63.43
2022-08-30T11:13:30.526Z,62.12
2022-08-30T11:16:39.522Z,61.07
2022-08-30T11:19:41.979Z,62.34
2022-08-30T11:23:07.054Z,60.52
2022-08-30T11:26:54.948Z,60.03
2022-08-30T11:29:57.070Z,59.66
2022-08-30T11:33:02.169Z,60.39
2022-08-30T11:36:04.525Z,58.79
2022-08-30T11:39:44.846Z,58.41
2022-08-30T11:42:49.428Z,58.19
2022-08-30T11:45:54.701Z,59.38
2022-08-30T11:49:25.152Z,58.09
2022-08-30T11:52:50.494Z,57.68
2022-08-30T11:56:30.349Z,58.57
2022-08-30T11:59:57.464Z,58.73
2022-08-30T12:03:01.024Z,57.34
2022-08-30T12:06:07.337Z,58.69
2022-08-30T12:09:12.429Z,56.47
2022-08-30T12:12:31.150Z,56.10
2022-08-30T12:15:59.630Z,56.24
2022-08-30T12:19:21.108Z,57.29
2022-08-30T12:22:23.501Z,59.06
2022-08-30T12:25:35.065Z,58.42
2022-08-30T12:28:38.726Z,57.73
2022-08-30T12:31:48.968Z,57.85
2022-08-30T12:34:59.110Z,57.40
2022-08-30T12:38:06.080Z,58.47
2022-08-30T12:41:08.585Z,57.22
2022-08-30T12:44:26.618Z,56.17
2022-08-30T12:47:39.313Z,57.03
2022-08-30T12:50:51.737Z,56.37
2022-08-30T12:53:54.139Z,57.38
2022-08-30T12:57:03.691Z,56.55
2022-08-30T13:00:36.966Z,55.86
2022-08-30T13:03:39.790Z,56.60
2022-08-30T13:06:44.716Z,57.67
2022-08-30T13:09:48.109Z,57.85
2022-08-30T13:13:05.826Z,57.54
2022-08-30T13:16:13.028Z,57.98
2022-08-30T13:19:26.904Z,57.63
2022-08-30T13:22:35.154Z,58.11
2022-08-30T13:25:39.290Z,58.35
2022-08-30T13:28:59.362Z,58.62
2022-08-30T13:32:02.120Z,58.58
2022-08-30T13:35:05.919Z,59.17
2022-08-30T13:38:08.350Z,59.07
2022-08-30T13:41:11.093Z,58.70
2022-08-30T13:44:14.179Z,58.69
2022-08-30T13:47:34.889Z,59.50
2022-08-30T13:50:37.491Z,58.51
2022-08-30T13:53:55.382Z,58.60
2022-08-30T13:56:58.251Z,60.43
2022-08-30T14:00:00.526Z,62.31
2022-08-30T14:03:02.676Z,63.39
2022-08-30T14:06:31.720Z,64.27
2022-08-30T14:09:28.000Z,64.33
2022-08-30T14:16:26.469Z,64.41
2022-08-30T14:19:25.226Z,64.81
2022-08-30T14:22:27.537Z,64.88
2022-08-30T14:25:30.101Z,64.36
2022-08-30T14:28:32.913Z,64.53
2022-08-30T14:31:35.666Z,65.10
2022-08-30T14:34:37.854Z,65.38
2022-08-30T14:37:40.138Z,65.71
2022-08-30T14:40:42.532Z,65.49
2022-08-30T14:43:45.254Z,65.85
2022-08-30T14:46:47.659Z,66.53
2022-08-30T14:49:49.923Z,66.76
2022-08-30T14:52:52.189Z,66.72
2022-08-30T14:55:54.473Z,67.25
2022-08-30T14:59:03.222Z,67.19
2022-08-30T15:02:06.361Z,66.78
2022-08-30T15:05:08.687Z,66.81
2022-08-30T15:08:11.086Z,66.88
2022-08-30T15:11:15.023Z,66.91
2022-08-30T15:14:17.704Z,66.85
2022-08-30T15:17:19.702Z,66.30
2022-08-30T15:20:22.220Z,66.38
2022-08-30T15:23:24.815Z,66.25
2022-08-30T15:26:27.402Z,66.57
2022-08-30T15:29:31.732Z,66.22
2022-08-30T15:32:34.330Z,65.98
2022-08-30T15:35:36.330Z,65.86
2022-08-30T15:38:39.381Z,65.59
2022-08-30T15:41:43.880Z,65.47
2022-08-30T15:44:51.183Z,65.07
2022-08-30T15:47:55.586Z,65.42
2022-08-30T15:50:58.232Z,64.70
2022-08-30T15:54:00.323Z,64.10
2022-08-30T15:57:02.719Z,64.54
2022-08-30T16:00:11.447Z,64.56
2022-08-30T16:03:13.998Z,64.57
2022-08-30T16:06:28.220Z,65.30
2022-08-30T16:09:32.646Z,65.86
2022-08-30T16:12:34.984Z,66.09
2022-08-30T16:15:40.166Z,65.71
2022-08-30T16:18:42.477Z,66.05
2022-08-30T16:21:44.897Z,66.24
2022-08-30T16:24:47.167Z,66.23
2022-08-30T16:27:49.390Z,66.49
2022-08-30T16:30:51.479Z,66.70
2022-08-30T16:33:54.394Z,66.46
2022-08-30T16:36:56.520Z,66.92
2022-08-30T16:39:59.116Z,66.86
2022-08-30T16:43:03.826Z,66.79
2022-08-30T16:46:11.958Z,66.25
2022-08-30T16:49:14.474Z,66.69
2022-08-30T16:52:17.361Z,66.65
2022-08-30T16:55:20.540Z,66.94
2022-08-30T16:58:24.622Z,67.86
2022-08-30T17:01:28.584Z,68.49
2022-08-30T17:04:31.024Z,68.97
2022-08-30T17:07:33.047Z,69.19
2022-08-30T17:10:36.222Z,69.18
2022-08-30T17:13:38.654Z,69.66
2022-08-30T17:16:41.425Z,69.50
2022-08-30T17:19:44.651Z,70.40
2022-08-30T17:22:47.001Z,70.94
2022-08-30T17:25:49.786Z,71.25
2022-08-30T17:28:52.276Z,71.64
2022-08-30T17:31:54.786Z,72.20
2022-08-30T17:34:57.074Z,72.87
2022-08-30T17:37:59.141Z,73.16
2022-08-30T17:41:10.485Z,73.11
2022-08-30T17:44:12.718Z,74.76
2022-08-30T17:47:15.123Z,74.28
2022-08-30T17:50:19.379Z,74.77
2022-08-30T17:53:21.877Z,74.65
2022-08-30T17:56:29.155Z,74.87
2022-08-30T17:59:37.080Z,76.36
2022-08-30T18:02:39.486Z,75.16
2022-08-30T18:05:43.714Z,76.76
2022-08-30T18:08:49.026Z,77.83
2022-08-30T18:11:56.251Z,77.69
2022-08-30T18:14:58.742Z,78.56
2022-08-30T18:18:01.209Z,79.33
2022-08-30T18:21:15.750Z,78.53
2022-08-30T18:24:18.537Z,78.76
2022-08-30T18:27:20.758Z,78.75
2022-08-30T18:30:23.199Z,78.43
2022-08-30T18:33:26.650Z,79.33
2022-08-30T18:36:31.028Z,78.71
2022-08-30T18:39:34.408Z,78.52
2022-08-30T18:42:37.688Z,78.50
2022-08-30T18:45:44.879Z,78.17
2022-08-30T18:48:47.706Z,79.76
2022-08-30T18:51:50.002Z,79.40
2022-08-30T18:54:53.368Z,80.00
2022-08-30T18:57:56.661Z,80.59
2022-08-30T19:00:59.392Z,80.67
2022-08-30T19:04:02.627Z,80.37
2022-08-30T19:07:07.318Z,80.41
2022-08-30T19:10:12.114Z,80.16
2022-08-30T19:13:14.975Z,79.95
2022-08-30T19:16:17.578Z,79.64
2022-08-30T19:19:20.844Z,79.16
2022-08-30T19:22:39.910Z,79.14
2022-08-30T19:25:52.676Z,79.66
2022-08-30T19:28:56.557Z,80.22
2022-08-30T19:31:58.944Z,80.19
2022-08-30T19:35:00.956Z,80.77
2022-08-30T19:38:03.692Z,80.54
2022-08-30T19:41:07.669Z,80.79
2022-08-30T19:44:10.401Z,81.10
2022-08-30T19:47:12.429Z,81.87
2022-08-30T19:50:15.941Z,82.23
2022-08-30T19:53:18.982Z,82.23
2022-08-30T19:56:23.557Z,83.19
2022-08-30T19:59:25.778Z,82.86
2022-08-30T20:02:28.988Z,82.58
2022-08-30T20:05:32.531Z,82.96
2022-08-30T20:08:35.476Z,83.64
2022-08-30T20:11:38.888Z,83.08
2022-08-30T20:14:42.787Z,83.02
2022-08-30T20:18:03.225Z,82.89
2022-08-30T20:21:13.366Z,83.28
2022-08-30T20:24:16.012Z,83.90
2022-08-30T20:27:18.504Z,83.73
2022-08-30T20:30:21.530Z,83.23
2022-08-30T20:33:25.089Z,83.63
2022-08-30T20:36:27.239Z,83.47
2022-08-30T20:39:29.446Z,82.91
2022-08-30T20:42:31.719Z,82.45
2022-08-30T20:45:34.665Z,82.48
2022-08-30T20:48:38.322Z,82.34
2022-08-30T20:51:40.923Z,82.20
2022-08-30T20:54:44.603Z,82.01
2022-08-30T20:57:47.743Z,82.36
2022-08-30T21:00:51.654Z,82.47
2022-08-30T21:03:54.544Z,83.25
2022-08-30T21:06:56.523Z,83.07
2022-08-30T21:09:59.725Z,82.93
2022-08-30T21:13:02.110Z,82.78
2022-08-30T21:16:05.717Z,83.91
2022-08-30T21:19:08.144Z,84.18
2022-08-30T21:22:11.453Z,83.78
2022-08-30T21:25:13.681Z,83.95
2022-08-30T21:28:17.214Z,82.78
2022-08-30T21:31:25.138Z,82.12
2022-08-30T21:34:27.492Z,84.31
2022-08-30T21:37:33.022Z,83.44
2022-08-30T21:40:38.179Z,82.92
2022-08-30T21:43:40.838Z,83.27
2022-08-30T21:46:43.755Z,84.16
2022-08-30T21:49:45.969Z,83.13
2022-08-30T21:52:48.504Z,83.47
2022-08-30T21:55:50.786Z,83.36
2022-08-30T21:58:55.254Z,83.59
2022-08-30T22:01:59.112Z,83.05
2022-08-30T22:05:01.663Z,83.09
2022-08-30T22:08:03.747Z,82.78
2022-08-30T22:11:08.256Z,82.90
2022-08-30T22:14:11.310Z,82.95
2022-08-30T22:17:14.169Z,83.42
2022-08-30T22:20:18.555Z,83.06
2022-08-30T22:23:21.600Z,82.83
2022-08-30T22:26:24.318Z,83.70
2022-08-30T22:29:26.891Z,83.16
2022-08-30T22:32:29.108Z,83.62
2022-08-30T22:35:31.316Z,84.26
2022-08-30T22:38:34.064Z,82.72
2022-08-30T22:41:36.959Z,84.64
2022-08-30T22:44:39.056Z,83.69
2022-08-30T22:47:41.467Z,84.22
2022-08-30T22:50:45.514Z,83.71
2022-08-30T22:53:48.530Z,83.31
2022-08-30T22:56:50.610Z,83.47
2022-08-30T22:59:52.873Z,83.90
2022-08-30T23:02:55.047Z,82.83
2022-08-30T23:05:58.436Z,83.09
2022-08-30T23:09:00.870Z,83.82
2022-08-30T23:12:03.425Z,83.56
2022-08-30T23:15:07.544Z,84.84
2022-08-30T23:18:09.936Z,84.29
2022-08-30T23:21:19.306Z,83.79
2022-08-30T23:24:40.158Z,84.02
2022-08-30T23:28:00.796Z,83.81
2022-08-30T23:31:33.113Z,83.66
2022-08-30T23:34:54.214Z,82.69
2022-08-30T23:38:18.909Z,82.00
2022-08-30T23:41:39.514Z,82.93
2022-08-30T23:45:00.295Z,82.82
2022-08-30T23:48:20.834Z,83.46
2022-08-30T23:51:41.787Z,82.34
2022-08-30T23:55:02.277Z,83.17
2022-08-30T23:58:23.077Z,82.33
